Time;durP1;ratioP1;P1;durP2;ratioP2;P2;SDS_P1;SDS_P2;PMS_P1;PMS_P2;Temp;Humidity;BMP_temperature;BMP_pressure;BME280_temperature;BME280_humidity;BME280_pressure;Samples;Min_cycle;Max_cycle;Signal;HPM_P1;HPM_P2
2023/12/31 00:00:53;;;;;;;22.50;10.43;;;7.20;99.90;;;;;;5053723;28;20045;-72
2023/12/31 00:03:18;;;;;;;18.48;10.88;;;7.20;99.90;;;;;;5063426;28;20462;-74
2023/12/31 00:05:44;;;;;;;19.02;11.20;;;7.20;99.90;;;;;;5059472;28;20025;-72
2023/12/31 00:08:11;;;;;;;17.35;10.90;;;7.10;99.90;;;;;;5065014;28;20470;-72
2023/12/31 00:10:39;;;;;;;18.80;9.88;;;7.10;99.90;;;;;;5061413;28;20025;-72
2023/12/31 00:13:04;;;;;;;23.08;11.27;;;7.10;99.90;;;;;;5052972;28;20390;-73
2023/12/31 00:15:30;;;;;;;20.35;11.10;;;7.10;99.90;;;;;;5062376;28;20028;-73
2023/12/31 00:17:56;;;;;;;17.67;10.63;;;7.00;99.90;;;;;;5058219;28;20066;-73
2023/12/31 00:20:21;;;;;;;20.27;10.20;;;7.00;99.90;;;;;;5065921;28;20024;-73
2023/12/31 00:22:47;;;;;;;19.45;9.80;;;6.90;99.90;;;;;;5067520;28;20027;-73
2023/12/31 00:25:13;;;;;;;17.17;10.20;;;6.90;99.90;;;;;;5058633;28;20036;-73
2023/12/31 00:27:38;;;;;;;21.55;10.90;;;6.90;99.90;;;;;;5052814;28;20058;-73
2023/12/31 00:30:05;;;;;;;17.02;10.43;;;6.90;99.90;;;;;;5057599;28;20032;-73
2023/12/31 00:32:30;;;;;;;18.13;10.85;;;6.90;99.90;;;;;;5058696;28;20036;-73
2023/12/31 00:34:56;;;;;;;20.17;11.07;;;6.90;99.90;;;;;;5072772;28;20025;-73
2023/12/31 00:37:22;;;;;;;17.23;10.30;;;6.90;99.90;;;;;;5055797;28;20036;-72
2023/12/31 00:39:47;;;;;;;16.77;9.70;;;6.90;99.90;;;;;;5063121;28;20074;-72
2023/12/31 00:42:13;;;;;;;16.13;10.15;;;6.80;99.90;;;;;;5052674;28;20094;-72
2023/12/31 00:44:39;;;;;;;21.00;10.60;;;6.80;99.90;;;;;;5056702;28;20117;-72
2023/12/31 00:47:05;;;;;;;20.15;10.73;;;6.80;99.90;;;;;;5069421;28;20028;-72
2023/12/31 00:49:30;;;;;;;19.75;11.07;;;6.80;99.90;;;;;;5072453;28;20431;-72
2023/12/31 00:51:56;;;;;;;18.65;10.88;;;6.80;99.90;;;;;;5060511;28;20070;-72
2023/12/31 00:54:21;;;;;;;16.77;10.52;;;6.70;99.90;;;;;;5059208;28;20074;-72
2023/12/31 00:56:47;;;;;;;22.30;13.27;;;6.70;99.90;;;;;;5067444;28;20024;-73
2023/12/31 00:59:12;;;;;;;20.55;10.68;;;6.60;99.90;;;;;;5071722;28;20109;-72
2023/12/31 01:01:38;;;;;;;19.48;10.30;;;6.60;99.90;;;;;;5060740;28;20053;-72
2023/12/31 01:04:04;;;;;;;17.55;9.95;;;6.60;99.90;;;;;;5072418;28;20035;-72
2023/12/31 01:06:29;;;;;;;18.05;9.50;;;6.50;99.90;;;;;;5072654;28;20039;-72
2023/12/31 01:08:57;;;;;;;16.30;9.65;;;6.50;99.90;;;;;;5072355;28;20480;-72
2023/12/31 01:11:23;;;;;;;15.15;9.38;;;6.50;99.90;;;;;;5071791;28;20031;-72
2023/12/31 01:13:49;;;;;;;16.92;10.00;;;6.50;99.90;;;;;;5072115;28;20028;-73
2023/12/31 01:16:14;;;;;;;15.98;9.80;;;6.40;99.90;;;;;;5055898;28;20025;-72
2023/12/31 01:18:40;;;;;;;15.57;9.93;;;6.40;99.80;;;;;;5052172;28;20037;-72
2023/12/31 01:21:06;;;;;;;17.67;10.07;;;6.30;99.80;;;;;;5051716;28;20029;-72
2023/12/31 01:23:31;;;;;;;14.30;9.50;;;6.20;99.80;;;;;;5052172;28;20112;-73
2023/12/31 01:25:57;;;;;;;16.08;10.10;;;6.10;99.90;;;;;;5052116;28;20067;-72
2023/12/31 01:28:22;;;;;;;13.63;8.88;;;6.00;99.90;;;;;;5051718;28;20041;-73
2023/12/31 01:30:48;;;;;;;17.55;10.50;;;6.00;99.90;;;;;;5052006;28;20032;-72
2023/12/31 01:33:14;;;;;;;13.98;9.30;;;5.90;99.90;;;;;;5051731;28;20396;-72
2023/12/31 01:35:39;;;;;;;16.23;9.57;;;5.90;99.90;;;;;;5056875;28;20063;-72
2023/12/31 01:38:05;;;;;;;15.32;9.75;;;5.90;99.90;;;;;;5067133;28;20033;-72
2023/12/31 01:40:30;;;;;;;16.40;10.15;;;5.80;99.90;;;;;;5051711;28;20163;-72
2023/12/31 01:42:56;;;;;;;17.27;9.52;;;5.80;99.90;;;;;;5051837;28;20021;-72
2023/12/31 01:45:22;;;;;;;16.75;10.52;;;5.80;99.90;;;;;;5051814;28;20028;-72
2023/12/31 01:47:47;;;;;;;16.98;9.88;;;5.80;99.90;;;;;;5051350;28;20462;-72
2023/12/31 01:50:14;;;;;;;16.92;10.77;;;5.80;99.90;;;;;;5051714;28;20029;-72
2023/12/31 01:52:42;;;;;;;14.23;9.95;;;5.70;99.90;;;;;;5053147;28;20626;-72
2023/12/31 01:55:08;;;;;;;15.68;9.70;;;5.70;99.90;;;;;;5054284;28;20063;-72
2023/12/31 01:57:37;;;;;;;16.48;10.15;;;5.60;99.90;;;;;;5056108;28;20025;-72
2023/12/31 02:00:04;;;;;;;16.10;10.07;;;5.60;99.90;;;;;;5055558;28;20049;-72
2023/12/31 02:02:30;;;;;;;15.98;10.10;;;5.60;99.90;;;;;;5055146;28;20057;-72
2023/12/31 02:04:56;;;;;;;18.85;10.18;;;5.60;99.90;;;;;;5062162;28;20123;-72
2023/12/31 02:07:22;;;;;;;15.32;9.52;;;5.60;99.90;;;;;;5065832;28;20046;-72
2023/12/31 02:09:48;;;;;;;20.75;11.90;;;5.50;99.90;;;;;;5065447;28;20428;-72
2023/12/31 02:12:14;;;;;;;18.77;9.98;;;5.50;99.90;;;;;;5063765;28;20020;-72
2023/12/31 02:14:40;;;;;;;17.15;10.18;;;5.50;99.90;;;;;;5065928;28;20025;-72
2023/12/31 02:17:05;;;;;;;16.65;9.68;;;5.50;99.90;;;;;;5065417;28;20454;-72
2023/12/31 02:19:31;;;;;;;16.50;10.05;;;5.40;99.90;;;;;;5075114;28;20067;-73
2023/12/31 02:21:58;;;;;;;12.73;8.98;;;5.40;99.90;;;;;;5075847;28;20032;-72
2023/12/31 02:24:34;;;;;;;13.43;8.85;;;5.40;99.90;;;;;;5075061;28;20021;-72
2023/12/31 02:27:00;;;;;;;16.10;8.95;;;5.40;99.90;;;;;;5075481;28;20431;-74
2023/12/31 02:29:25;;;;;;;14.30;9.27;;;5.40;99.90;;;;;;5074842;28;20108;-72
2023/12/31 02:31:51;;;;;;;12.98;8.45;;;5.40;99.90;;;;;;5075234;28;20104;-73
2023/12/31 02:34:17;;;;;;;11.38;8.48;;;5.40;99.90;;;;;;5075008;28;20070;-71
2023/12/31 02:36:42;;;;;;;13.55;8.30;;;5.30;99.90;;;;;;5061585;28;20029;-72
2023/12/31 02:39:08;;;;;;;14.07;8.70;;;5.30;99.90;;;;;;5054926;28;20091;-72
2023/12/31 02:41:34;;;;;;;13.10;9.07;;;5.30;99.90;;;;;;5054240;28;20116;-73
2023/12/31 02:44:01;;;;;;;15.57;9.20;;;5.30;99.90;;;;;;5055084;28;20104;-72
2023/12/31 02:46:26;;;;;;;14.82;8.52;;;5.30;99.90;;;;;;5051934;28;20477;-73
2023/12/31 02:48:52;;;;;;;14.70;8.98;;;5.30;99.90;;;;;;5054354;28;20029;-73
2023/12/31 02:51:18;;;;;;;14.15;8.90;;;5.30;99.90;;;;;;5054452;28;20116;-73
2023/12/31 02:53:43;;;;;;;14.35;8.82;;;5.30;99.90;;;;;;5054740;28;20025;-73
2023/12/31 02:56:09;;;;;;;16.67;8.80;;;5.20;99.90;;;;;;5054465;28;20079;-73
2023/12/31 02:58:35;;;;;;;13.38;8.93;;;5.20;99.90;;;;;;5053852;28;20116;-72
2023/12/31 03:01:00;;;;;;;14.77;8.98;;;5.30;99.90;;;;;;5054550;28;20560;-73
2023/12/31 03:03:26;;;;;;;14.10;8.30;;;5.30;99.90;;;;;;5053667;28;20028;-73
2023/12/31 03:05:51;;;;;;;12.82;7.88;;;5.20;99.90;;;;;;5054267;28;20434;-72
2023/12/31 03:08:17;;;;;;;12.55;9.10;;;5.20;99.90;;;;;;5053959;28;20100;-72
2023/12/31 03:10:43;;;;;;;13.70;8.88;;;5.20;99.90;;;;;;5054182;28;20060;-72
2023/12/31 03:13:08;;;;;;;13.82;8.57;;;5.10;99.90;;;;;;5054041;28;20359;-72
2023/12/31 03:15:34;;;;;;;13.30;8.90;;;5.10;99.90;;;;;;5053578;28;20060;-72
2023/12/31 03:17:59;;;;;;;15.52;9.15;;;5.10;99.90;;;;;;5054465;28;20037;-73
2023/12/31 03:20:25;;;;;;;14.90;8.88;;;5.10;99.90;;;;;;5053375;28;20025;-73
2023/12/31 03:22:51;;;;;;;14.23;8.48;;;5.10;99.90;;;;;;5054278;28;20424;-72
2023/12/31 03:25:17;;;;;;;14.18;9.20;;;5.10;99.90;;;;;;5053600;28;20029;-73
2023/12/31 03:27:45;;;;;;;15.23;9.07;;;5.00;99.90;;;;;;5054185;28;20029;-73
2023/12/31 03:30:11;;;;;;;15.15;9.15;;;5.00;99.90;;;;;;5054173;28;20032;-72
2023/12/31 03:32:36;;;;;;;13.27;7.88;;;5.00;99.90;;;;;;5055768;28;20025;-72
2023/12/31 03:35:02;;;;;;;13.18;8.43;;;4.90;99.90;;;;;;5053643;28;20144;-72
2023/12/31 03:37:29;;;;;;;12.82;8.30;;;4.90;99.90;;;;;;5053572;28;20068;-72
2023/12/31 03:39:54;;;;;;;14.80;8.80;;;4.90;99.90;;;;;;5053725;28;20033;-72
2023/12/31 03:42:20;;;;;;;15.38;8.00;;;4.90;99.90;;;;;;5053229;28;20381;-72
2023/12/31 03:44:47;;;;;;;11.63;8.07;;;4.80;99.90;;;;;;5053554;28;20112;-73
2023/12/31 03:47:12;;;;;;;10.80;7.45;;;4.80;99.90;;;;;;5052351;28;20069;-73
2023/12/31 03:49:38;;;;;;;12.90;7.97;;;4.80;99.90;;;;;;5053327;28;20520;-73
2023/12/31 03:52:04;;;;;;;12.82;7.78;;;4.80;99.90;;;;;;5053620;28;20029;-73
2023/12/31 03:54:30;;;;;;;14.02;8.38;;;4.70;99.90;;;;;;5052889;28;20029;-73
2023/12/31 03:56:55;;;;;;;12.38;8.63;;;4.80;99.90;;;;;;5053568;28;20147;-73
2023/12/31 03:59:21;;;;;;;15.63;8.82;;;4.70;99.90;;;;;;5052952;28;20129;-73
2023/12/31 04:01:47;;;;;;;14.40;8.68;;;4.70;99.90;;;;;;5053462;28;20363;-72
2023/12/31 04:04:16;;;;;;;14.00;8.93;;;4.80;99.90;;;;;;5053435;28;20025;-72
2023/12/31 04:06:45;;;;;;;13.77;8.50;;;4.80;99.90;;;;;;5053272;28;20029;-72
2023/12/31 04:09:11;;;;;;;13.88;8.00;;;4.80;99.90;;;;;;5053363;28;20040;-72
2023/12/31 04:11:36;;;;;;;12.07;8.27;;;4.80;99.90;;;;;;5052820;28;20025;-72
2023/12/31 04:14:02;;;;;;;14.38;8.43;;;4.70;99.90;;;;;;5052959;28;20154;-72
2023/12/31 04:16:27;;;;;;;15.80;8.95;;;4.70;99.90;;;;;;5052143;28;20024;-72
2023/12/31 04:18:53;;;;;;;14.20;7.82;;;4.60;99.90;;;;;;5053104;28;20061;-72
2023/12/31 04:21:19;;;;;;;12.60;8.55;;;4.60;99.90;;;;;;5039643;28;20453;-72
2023/12/31 04:23:44;;;;;;;13.00;8.02;;;4.50;99.90;;;;;;5033164;28;20034;-72
2023/12/31 04:26:10;;;;;;;14.20;8.50;;;4.50;99.90;;;;;;5033033;28;20462;-72
2023/12/31 04:28:36;;;;;;;14.05;9.10;;;4.50;99.90;;;;;;5032576;28;20057;-72
2023/12/31 04:31:03;;;;;;;12.85;8.40;;;4.50;99.90;;;;;;5033116;28;20060;-72
2023/12/31 04:33:28;;;;;;;15.48;9.30;;;4.40;99.90;;;;;;5032453;28;20505;-73
2023/12/31 04:35:54;;;;;;;14.32;8.38;;;4.50;99.90;;;;;;5033114;28;20033;-73
2023/12/31 04:38:20;;;;;;;16.35;9.73;;;4.50;99.90;;;;;;5032115;28;20393;-73
2023/12/31 04:40:45;;;;;;;15.05;9.80;;;4.40;99.90;;;;;;5031212;28;20059;-73
2023/12/31 04:43:11;;;;;;;13.57;9.48;;;4.50;99.90;;;;;;5032428;28;20030;-73
2023/12/31 04:45:36;;;;;;;15.70;10.38;;;4.50;99.90;;;;;;5041377;28;20100;-73
2023/12/31 04:48:02;;;;;;;20.83;11.45;;;4.60;99.90;;;;;;5052370;28;20025;-74
2023/12/31 04:50:28;;;;;;;18.90;12.50;;;4.60;99.90;;;;;;5052105;28;20485;-72
2023/12/31 04:52:54;;;;;;;20.15;13.27;;;4.70;99.90;;;;;;5052466;28;20060;-72
2023/12/31 04:55:20;;;;;;;21.25;12.88;;;4.80;99.90;;;;;;5052426;28;20029;-72
2023/12/31 04:57:46;;;;;;;19.73;13.52;;;4.80;99.90;;;;;;5052049;28;20075;-72
2023/12/31 05:00:12;;;;;;;23.23;13.45;;;4.80;99.90;;;;;;5052303;28;20366;-72
2023/12/31 05:02:38;;;;;;;28.13;16.88;;;4.80;99.90;;;;;;5051760;28;20490;-73
2023/12/31 05:05:05;;;;;;;31.45;19.35;;;4.80;99.90;;;;;;5051967;28;20136;-72
2023/12/31 05:07:31;;;;;;;28.83;18.40;;;4.90;99.90;;;;;;5051860;28;20025;-73
2023/12/31 05:09:56;;;;;;;32.90;19.92;;;4.90;99.90;;;;;;5051915;28;20036;-72
2023/12/31 05:12:22;;;;;;;33.40;20.02;;;4.90;99.90;;;;;;5051874;28;20031;-72
2023/12/31 05:14:47;;;;;;;30.50;20.27;;;5.00;99.90;;;;;;5051985;28;20430;-72
2023/12/31 05:17:13;;;;;;;34.58;19.85;;;5.00;99.90;;;;;;5051746;28;20128;-72
2023/12/31 05:19:39;;;;;;;31.67;20.83;;;5.10;99.90;;;;;;5051452;28;20466;-72
2023/12/31 05:22:05;;;;;;;38.75;22.63;;;5.10;99.90;;;;;;5051999;28;20025;-72
2023/12/31 05:24:30;;;;;;;41.22;25.02;;;5.20;99.90;;;;;;5051520;28;20017;-72
2023/12/31 05:26:56;;;;;;;37.75;22.75;;;5.20;99.90;;;;;;5052203;28;20426;-72
2023/12/31 05:29:21;;;;;;;42.22;24.05;;;5.20;99.90;;;;;;5052715;28;20028;-72
2023/12/31 05:31:47;;;;;;;42.08;25.05;;;5.20;99.90;;;;;;5071519;28;20446;-72
2023/12/31 05:34:12;;;;;;;46.03;27.83;;;5.20;99.90;;;;;;5071834;28;20055;-72
2023/12/31 05:36:39;;;;;;;44.00;27.38;;;5.20;99.90;;;;;;5071336;28;20405;-72
2023/12/31 05:39:05;;;;;;;42.72;27.25;;;5.30;99.90;;;;;;5071751;28;20043;-71
2023/12/31 05:41:30;;;;;;;50.90;30.00;;;5.30;99.90;;;;;;5071447;28;20025;-71
2023/12/31 05:43:56;;;;;;;46.22;28.17;;;5.30;99.90;;;;;;5072096;28;20051;-71
2023/12/31 05:46:22;;;;;;;44.50;28.35;;;5.30;99.90;;;;;;5071655;28;20024;-73
2023/12/31 05:48:47;;;;;;;42.42;28.17;;;5.40;99.90;;;;;;5069960;28;20024;-73
2023/12/31 05:51:13;;;;;;;44.85;27.63;;;5.50;99.90;;;;;;5071715;28;20028;-73
2023/12/31 05:53:39;;;;;;;47.65;29.30;;;5.40;99.90;;;;;;5062719;28;20021;-74
2023/12/31 05:56:04;;;;;;;46.45;27.88;;;5.40;99.90;;;;;;5051341;28;20025;-72
2023/12/31 05:58:30;;;;;;;48.88;28.92;;;5.40;99.90;;;;;;5050829;28;20049;-71
2023/12/31 06:00:56;;;;;;;45.90;29.83;;;5.30;99.90;;;;;;5051098;28;20135;-73
2023/12/31 06:03:22;;;;;;;42.78;28.25;;;5.40;99.90;;;;;;5051350;28;20104;-72
2023/12/31 06:05:47;;;;;;;42.88;28.92;;;5.30;99.90;;;;;;5049489;28;20025;-73
2023/12/31 06:08:13;;;;;;;43.17;27.92;;;5.30;99.90;;;;;;5051774;28;20108;-72
2023/12/31 06:10:38;;;;;;;48.13;29.70;;;5.30;99.90;;;;;;5050949;28;20385;-73
2023/12/31 06:13:04;;;;;;;49.78;30.48;;;5.40;99.90;;;;;;5051831;28;20037;-73
2023/12/31 06:15:30;;;;;;;48.85;29.50;;;5.40;99.90;;;;;;5050915;28;20029;-72
2023/12/31 06:17:55;;;;;;;47.40;29.70;;;5.30;99.90;;;;;;5051262;28;20112;-71
2023/12/31 06:20:21;;;;;;;50.67;31.52;;;5.40;99.90;;;;;;5051149;28;20448;-71
2023/12/31 06:22:47;;;;;;;49.03;29.92;;;5.30;99.90;;;;;;5050859;28;20025;-73
2023/12/31 06:25:12;;;;;;;48.40;30.80;;;5.30;99.90;;;;;;5051368;28;20032;-72
2023/12/31 06:27:39;;;;;;;46.03;30.33;;;5.30;99.90;;;;;;5050977;28;20068;-73
2023/12/31 06:30:05;;;;;;;47.33;29.35;;;5.20;99.90;;;;;;5051290;28;20028;-73
2023/12/31 06:32:31;;;;;;;43.80;28.30;;;5.20;99.90;;;;;;5050796;28;20055;-73
2023/12/31 06:34:57;;;;;;;49.95;29.70;;;5.20;99.90;;;;;;5051381;28;20108;-73
2023/12/31 06:37:22;;;;;;;45.47;29.55;;;5.10;99.90;;;;;;5051261;28;20450;-73
2023/12/31 06:39:49;;;;;;;46.90;29.55;;;5.10;99.90;;;;;;5054000;28;20079;-72
2023/12/31 06:42:15;;;;;;;42.30;28.50;;;5.00;99.90;;;;;;5054995;28;20116;-72
2023/12/31 06:44:41;;;;;;;44.97;28.60;;;5.00;99.90;;;;;;5054330;28;20112;-73
2023/12/31 06:47:07;;;;;;;42.72;28.90;;;5.00;99.90;;;;;;5054570;28;20032;-72
2023/12/31 06:49:32;;;;;;;46.53;30.52;;;5.00;99.90;;;;;;5054344;28;20397;-73
2023/12/31 06:52:00;;;;;;;48.47;30.33;;;5.00;99.90;;;;;;5054396;28;20031;-73
2023/12/31 06:54:27;;;;;;;45.80;30.20;;;4.90;99.90;;;;;;5054123;28;20066;-73
2023/12/31 06:56:53;;;;;;;44.25;28.15;;;5.00;99.90;;;;;;5054758;28;20021;-72
2023/12/31 06:59:18;;;;;;;43.38;28.92;;;4.90;99.90;;;;;;5054517;28;20053;-72
2023/12/31 07:01:44;;;;;;;49.38;29.55;;;4.90;99.90;;;;;;5054336;28;20086;-72
2023/12/31 07:04:09;;;;;;;49.20;29.75;;;4.90;99.90;;;;;;5054623;28;20036;-72
2023/12/31 07:06:35;;;;;;;44.28;29.13;;;4.90;99.90;;;;;;5053688;28;20103;-73
2023/12/31 07:09:00;;;;;;;46.05;29.30;;;4.90;99.90;;;;;;5054254;28;20059;-72
2023/12/31 07:11:26;;;;;;;45.17;29.38;;;4.90;99.90;;;;;;5054152;28;20100;-72
2023/12/31 07:13:52;;;;;;;44.80;28.80;;;4.90;99.90;;;;;;5054445;28;20036;-73
2023/12/31 07:16:18;;;;;;;44.72;29.20;;;4.90;99.90;;;;;;5054477;28;20032;-73
2023/12/31 07:18:44;;;;;;;46.20;29.35;;;4.90;99.90;;;;;;5053403;28;20502;-72
2023/12/31 07:21:10;;;;;;;43.00;28.23;;;4.80;99.90;;;;;;5053040;28;20156;-72
2023/12/31 07:23:36;;;;;;;42.53;26.88;;;4.80;99.90;;;;;;5053887;28;20087;-72
2023/12/31 07:26:03;;;;;;;44.47;28.90;;;4.80;99.90;;;;;;5054203;28;20028;-72
2023/12/31 07:28:29;;;;;;;40.95;27.35;;;4.80;99.90;;;;;;5053580;28;20485;-72
2023/12/31 07:30:55;;;;;;;42.33;27.88;;;4.80;99.90;;;;;;5054323;28;20032;-71
2023/12/31 07:33:20;;;;;;;42.60;26.90;;;4.80;99.90;;;;;;5052971;28;20025;-72
2023/12/31 07:35:46;;;;;;;44.30;27.85;;;4.80;99.90;;;;;;5053758;28;20386;-72
2023/12/31 07:38:12;;;;;;;42.20;27.10;;;4.80;99.90;;;;;;5066388;28;20066;-73
2023/12/31 07:40:38;;;;;;;45.85;25.73;;;4.70;99.90;;;;;;5073677;28;20043;-73
2023/12/31 07:43:03;;;;;;;43.05;28.33;;;4.70;99.90;;;;;;5074256;28;20104;-72
2023/12/31 07:45:29;;;;;;;45.25;27.25;;;4.70;99.90;;;;;;5073388;28;20073;-73
2023/12/31 07:47:54;;;;;;;47.55;28.48;;;4.70;99.90;;;;;;5074056;28;20028;-72
2023/12/31 07:50:20;;;;;;;42.70;26.15;;;4.70;99.90;;;;;;5072788;28;20024;-72
2023/12/31 07:52:46;;;;;;;39.03;27.02;;;4.60;99.90;;;;;;5073194;28;20029;-73
2023/12/31 07:55:12;;;;;;;41.53;25.50;;;4.70;99.90;;;;;;5073732;28;20020;-72
2023/12/31 07:57:38;;;;;;;40.33;25.83;;;4.70;99.90;;;;;;5073477;28;20399;-73
2023/12/31 08:00:08;;;;;;;39.53;25.20;;;4.70;99.90;;;;;;5073119;28;20139;-73
2023/12/31 08:02:34;;;;;;;38.60;25.33;;;4.70;99.90;;;;;;5073235;28;20024;-72
2023/12/31 08:04:59;;;;;;;37.13;24.60;;;4.60;99.90;;;;;;5073554;28;20083;-72
2023/12/31 08:07:25;;;;;;;35.15;23.35;;;4.60;99.90;;;;;;5072114;28;20385;-72
2023/12/31 08:09:50;;;;;;;34.47;23.10;;;4.60;99.90;;;;;;5073100;28;20032;-72
2023/12/31 08:12:16;;;;;;;35.05;23.60;;;4.50;99.90;;;;;;5073173;28;20032;-73
2023/12/31 08:14:42;;;;;;;32.88;22.00;;;4.50;99.90;;;;;;5073061;28;20025;-72
2023/12/31 08:17:08;;;;;;;31.63;21.98;;;4.50;99.90;;;;;;5073288;28;20024;-72
2023/12/31 08:19:34;;;;;;;32.60;22.63;;;4.50;99.90;;;;;;5072787;28;20028;-72
2023/12/31 08:21:59;;;;;;;35.10;24.70;;;4.40;99.90;;;;;;5072938;28;20046;-71
2023/12/31 08:24:25;;;;;;;32.53;22.35;;;4.40;99.90;;;;;;5073079;28;20073;-72
2023/12/31 08:26:51;;;;;;;35.25;23.52;;;4.40;99.90;;;;;;5072625;28;20025;-72
2023/12/31 08:29:17;;;;;;;37.00;24.55;;;4.30;99.90;;;;;;5073032;28;20541;-72
2023/12/31 08:31:52;;;;;;;32.42;21.75;;;4.30;99.90;;;;;;5072316;28;20147;-71
2023/12/31 08:34:18;;;;;;;30.55;21.35;;;4.30;99.90;;;;;;5072829;28;20025;-72
2023/12/31 08:36:44;;;;;;;32.03;21.65;;;4.30;99.90;;;;;;5072370;28;20020;-73
2023/12/31 08:39:10;;;;;;;31.58;21.35;;;4.30;99.90;;;;;;5072841;28;20033;-73
2023/12/31 08:41:35;;;;;;;35.80;22.08;;;4.30;99.90;;;;;;5072289;28;20025;-72
2023/12/31 08:44:01;;;;;;;35.35;23.63;;;4.20;99.90;;;;;;5072852;28;20081;-72
2023/12/31 08:46:26;;;;;;;34.33;23.85;;;4.20;99.90;;;;;;5072732;28;20029;-72
2023/12/31 08:48:52;;;;;;;34.03;22.73;;;4.10;99.90;;;;;;5072276;28;20032;-73
2023/12/31 08:51:19;;;;;;;35.05;23.27;;;4.20;99.90;;;;;;5065005;28;20458;-72
2023/12/31 08:53:44;;;;;;;35.25;23.48;;;4.10;99.90;;;;;;5052215;28;20047;-72
2023/12/31 08:56:10;;;;;;;37.83;24.67;;;4.10;99.90;;;;;;5052253;28;20469;-73
2023/12/31 08:58:35;;;;;;;37.53;23.50;;;4.20;99.90;;;;;;5051680;28;20112;-72
2023/12/31 09:01:02;;;;;;;36.75;23.13;;;4.20;99.90;;;;;;5052196;28;20025;-72
2023/12/31 09:03:28;;;;;;;40.78;25.30;;;4.20;99.90;;;;;;5052219;28;20535;-72
2023/12/31 09:05:53;;;;;;;36.53;23.63;;;4.20;99.90;;;;;;5052123;28;20028;-72
2023/12/31 09:08:19;;;;;;;37.45;24.05;;;4.20;99.90;;;;;;5052462;28;20335;-72
2023/12/31 09:10:45;;;;;;;37.13;24.08;;;4.20;99.90;;;;;;5051754;28;20036;-72
2023/12/31 09:13:11;;;;;;;37.42;22.95;;;4.20;99.90;;;;;;5052456;28;20178;-73
2023/12/31 09:15:37;;;;;;;35.28;22.80;;;4.30;99.90;;;;;;5052018;28;20056;-73
2023/12/31 09:18:03;;;;;;;39.30;23.80;;;4.30;99.90;;;;;;5052456;28;20032;-73
2023/12/31 09:20:29;;;;;;;35.55;22.73;;;4.30;99.90;;;;;;5052404;28;20029;-73
2023/12/31 09:22:54;;;;;;;36.75;21.23;;;4.40;99.90;;;;;;5051963;28;20040;-73
2023/12/31 09:25:20;;;;;;;38.47;21.77;;;4.30;99.90;;;;;;5052028;28;20051;-73
2023/12/31 09:27:46;;;;;;;35.65;21.63;;;4.40;99.90;;;;;;5051823;28;20029;-73
2023/12/31 09:30:12;;;;;;;36.25;21.05;;;4.40;99.90;;;;;;5052258;28;20021;-73
2023/12/31 09:32:37;;;;;;;35.00;21.88;;;4.40;99.90;;;;;;5051777;28;20095;-73
2023/12/31 09:35:04;;;;;;;35.60;21.77;;;4.50;99.90;;;;;;5051697;28;20092;-73
2023/12/31 09:37:30;;;;;;;33.90;20.85;;;4.50;99.90;;;;;;5051768;28;20021;-75
2023/12/31 09:39:56;;;;;;;33.88;21.40;;;4.50;99.90;;;;;;5049131;28;20029;-72
2023/12/31 09:42:37;;;;;;;34.50;21.17;;;4.50;99.90;;;;;;5053342;28;20037;-72
2023/12/31 09:45:04;;;;;;;36.58;21.38;;;4.50;99.90;;;;;;5032059;28;20022;-72
2023/12/31 09:47:32;;;;;;;32.30;20.10;;;4.50;99.90;;;;;;5037664;28;20048;-72
2023/12/31 09:49:58;;;;;;;36.38;21.80;;;4.60;99.90;;;;;;5051396;28;20028;-72
2023/12/31 09:52:24;;;;;;;36.47;21.60;;;4.60;99.90;;;;;;5051777;28;20079;-72
2023/12/31 09:54:51;;;;;;;33.10;20.77;;;4.60;99.90;;;;;;5051221;28;20432;-72
2023/12/31 09:57:20;;;;;;;34.63;21.58;;;4.70;99.90;;;;;;5051524;28;20106;-73
2023/12/31 09:59:48;;;;;;;37.60;22.35;;;4.70;99.90;;;;;;5050995;28;20049;-72
2023/12/31 10:02:22;;;;;;;34.95;21.02;;;4.70;99.90;;;;;;5051642;28;20047;-71
2023/12/31 10:04:49;;;;;;;38.10;22.25;;;4.70;99.90;;;;;;5050935;28;20501;-72
2023/12/31 10:07:16;;;;;;;36.88;22.92;;;4.80;99.90;;;;;;5051600;28;20134;-72
2023/12/31 10:09:42;;;;;;;35.63;22.20;;;4.80;99.90;;;;;;5050862;28;20366;-72
2023/12/31 10:12:08;;;;;;;39.78;23.33;;;4.80;99.90;;;;;;5042151;28;20072;-71
2023/12/31 10:14:34;;;;;;;41.60;23.08;;;4.90;99.90;;;;;;5052427;28;20028;-72
2023/12/31 10:16:59;;;;;;;43.22;23.58;;;4.90;99.90;;;;;;5065506;28;20440;-72
2023/12/31 10:19:25;;;;;;;40.03;22.58;;;4.90;99.90;;;;;;5060476;28;20051;-72
2023/12/31 10:21:51;;;;;;;39.10;23.40;;;4.80;99.90;;;;;;5055139;28;20067;-71
2023/12/31 10:24:27;;;;;;;35.40;22.83;;;4.90;99.90;;;;;;5056749;28;20423;-72
2023/12/31 10:26:54;;;;;;;39.05;23.38;;;4.80;99.90;;;;;;5065733;28;20457;-72
2023/12/31 10:29:20;;;;;;;34.75;21.35;;;4.90;99.90;;;;;;5064249;28;20029;-72
2023/12/31 10:31:48;;;;;;;36.95;22.23;;;4.90;99.90;;;;;;5061166;28;20100;-71
2023/12/31 10:34:17;;;;;;;38.80;23.67;;;4.90;99.90;;;;;;5055407;28;20037;-72
2023/12/31 10:36:47;;;;;;;35.15;21.30;;;4.90;99.90;;;;;;5054558;28;20151;-72
2023/12/31 10:39:28;;;;;;;36.33;21.10;;;4.90;99.90;;;;;;5055089;28;20033;-71
2023/12/31 10:42:00;;;;;;;39.75;23.17;;;4.90;99.90;;;;;;5072307;28;20116;-71
2023/12/31 10:44:26;;;;;;;42.03;22.92;;;5.00;99.90;;;;;;5075187;28;20104;-72
2023/12/31 10:46:56;;;;;;;38.78;23.55;;;4.90;99.90;;;;;;5071348;28;20028;-73
2023/12/31 10:49:23;;;;;;;41.13;23.20;;;4.90;99.90;;;;;;5053573;28;20025;-72
2023/12/31 10:51:53;;;;;;;39.72;23.95;;;4.90;99.90;;;;;;5054507;28;20033;-72
2023/12/31 10:54:36;;;;;;;34.85;22.33;;;5.00;99.90;;;;;;5054925;28;20021;-73
2023/12/31 10:57:03;;;;;;;34.92;22.60;;;4.90;99.90;;;;;;5054345;28;20024;-72
2023/12/31 10:59:30;;;;;;;36.08;22.52;;;5.00;99.90;;;;;;5054339;28;20053;-73
2023/12/31 11:01:57;;;;;;;38.45;23.83;;;5.00;99.90;;;;;;5054001;28;20039;-72
2023/12/31 11:04:24;;;;;;;35.13;22.02;;;4.90;99.90;;;;;;5054238;28;20025;-72
2023/12/31 11:06:50;;;;;;;37.45;23.83;;;4.90;99.90;;;;;;5053840;28;20466;-73
2023/12/31 11:09:17;;;;;;;38.35;24.73;;;5.00;99.90;;;;;;5053822;28;20021;-73
2023/12/31 11:11:43;;;;;;;41.55;24.42;;;5.00;99.90;;;;;;5053926;28;20465;-73
2023/12/31 11:14:11;;;;;;;43.00;25.67;;;5.00;99.90;;;;;;5054130;28;20037;-73
2023/12/31 11:16:46;;;;;;;38.97;23.33;;;5.00;99.90;;;;;;5054529;28;20025;-73
2023/12/31 11:19:54;;;;;;;39.90;24.83;;;5.00;99.90;;;;;;5054234;28;20076;-73
2023/12/31 11:22:41;;;;;;;43.80;25.95;;;5.00;99.90;;;;;;5054137;28;20124;-73
2023/12/31 11:25:07;;;;;;;45.13;27.35;;;4.90;99.90;;;;;;5053744;28;20063;-73
2023/12/31 11:27:33;;;;;;;44.25;26.25;;;4.90;99.90;;;;;;5054314;28;20025;-73
2023/12/31 11:30:01;;;;;;;44.97;27.52;;;4.90;99.90;;;;;;5053840;28;20060;-72
2023/12/31 11:32:27;;;;;;;49.28;29.13;;;5.00;99.90;;;;;;5054219;28;20036;-73
2023/12/31 11:34:53;;;;;;;48.25;28.98;;;5.00;99.90;;;;;;5053545;28;20021;-73
2023/12/31 11:37:20;;;;;;;50.17;29.88;;;5.00;99.90;;;;;;5053797;28;20059;-72
2023/12/31 11:39:47;;;;;;;50.15;30.27;;;5.00;99.90;;;;;;5052827;28;20036;-72
2023/12/31 11:42:13;;;;;;;45.72;28.90;;;5.00;99.90;;;;;;5053850;28;20051;-72
2023/12/31 11:44:43;;;;;;;47.50;28.70;;;5.00;99.90;;;;;;5053828;28;20029;-72
2023/12/31 11:47:15;;;;;;;51.47;31.08;;;5.10;99.90;;;;;;5055856;28;20162;-72
2023/12/31 11:50:07;;;;;;;46.80;29.45;;;5.10;99.90;;;;;;5073790;28;20060;-72
2023/12/31 11:52:41;;;;;;;45.00;27.55;;;5.10;99.90;;;;;;5070147;28;20465;-72
2023/12/31 11:55:11;;;;;;;47.03;28.25;;;5.10;99.90;;;;;;5073072;28;20024;-72
2023/12/31 11:57:38;;;;;;;45.47;27.90;;;5.10;99.90;;;;;;5073224;28;20052;-73
2023/12/31 12:00:08;;;;;;;45.92;25.63;;;5.10;99.90;;;;;;5072874;28;20136;-72
2023/12/31 12:02:34;;;;;;;43.95;25.63;;;5.20;99.90;;;;;;5073414;28;20046;-72
2023/12/31 12:05:02;;;;;;;41.75;24.30;;;5.20;99.90;;;;;;5073116;28;20029;-72
2023/12/31 12:07:29;;;;;;;40.58;25.08;;;5.20;99.90;;;;;;5073443;28;20533;-73
2023/12/31 12:09:54;;;;;;;42.45;24.75;;;5.30;99.90;;;;;;5056193;28;20037;-73
2023/12/31 12:12:21;;;;;;;44.95;25.90;;;5.30;99.90;;;;;;5053080;28;20037;-73
2023/12/31 12:14:49;;;;;;;37.13;23.80;;;5.30;99.90;;;;;;5053005;28;20099;-73
2023/12/31 12:17:15;;;;;;;38.85;24.10;;;5.30;99.90;;;;;;5051544;28;20079;-73
2023/12/31 12:19:41;;;;;;;39.63;23.67;;;5.30;99.90;;;;;;5052439;28;20466;-72
2023/12/31 12:22:07;;;;;;;41.38;24.90;;;5.30;99.90;;;;;;5051390;28;20419;-73
2023/12/31 12:24:32;;;;;;;39.13;23.65;;;5.40;99.90;;;;;;5053005;28;20410;-72
2023/12/31 12:27:03;;;;;;;40.83;23.95;;;5.40;99.90;;;;;;5052543;28;20431;-73
2023/12/31 12:29:29;;;;;;;43.05;24.27;;;5.40;99.90;;;;;;5052986;28;20421;-74
2023/12/31 12:31:56;;;;;;;50.58;30.98;;;5.40;99.90;;;;;;5052444;28;20039;-73
2023/12/31 12:34:22;;;;;;;50.75;29.73;;;5.40;99.90;;;;;;5052637;28;20029;-72
2023/12/31 12:36:48;;;;;;;43.47;25.63;;;5.50;99.90;;;;;;5052196;28;20170;-71